sensor_id;sensor_type;location;lat;lon;timestamp;temperature;humidity
27534;DHT22;14973;51.460;7.008;2023-03-14T00:02:05;11.50;29.00
27534;DHT22;14973;51.460;7.008;2023-03-14T00:04:31;11.50;26.40
27534;DHT22;14973;51.460;7.008;2023-03-14T00:06:56;11.50;28.60
27534;DHT22;14973;51.460;7.008;2023-03-14T00:09:22;11.50;28.00
27534;DHT22;14973;51.460;7.008;2023-03-14T00:11:48;11.50;23.60
27534;DHT22;14973;51.460;7.008;2023-03-14T00:14:13;11.40;27.10
27534;DHT22;14973;51.460;7.008;2023-03-14T00:16:40;11.50;23.40
27534;DHT22;14973;51.460;7.008;2023-03-14T00:19:06;11.40;24.30
27534;DHT22;14973;51.460;7.008;2023-03-14T00:21:32;11.40;24.40
27534;DHT22;14973;51.460;7.008;2023-03-14T00:23:57;11.40;23.80
27534;DHT22;14973;51.460;7.008;2023-03-14T00:26:23;11.40;26.40
27534;DHT22;14973;51.460;7.008;2023-03-14T00:28:51;11.40;27.60
27534;DHT22;14973;51.460;7.008;2023-03-14T00:31:17;11.50;35.40
27534;DHT22;14973;51.460;7.008;2023-03-14T00:33:44;11.50;30.40
27534;DHT22;14973;51.460;7.008;2023-03-14T00:36:12;11.50;28.20
27534;DHT22;14973;51.460;7.008;2023-03-14T00:38:39;11.50;27.30
27534;DHT22;14973;51.460;7.008;2023-03-14T00:41:07;11.50;23.50
27534;DHT22;14973;51.460;7.008;2023-03-14T00:43:33;11.60;19.60
27534;DHT22;14973;51.460;7.008;2023-03-14T00:45:59;11.70;14.90
27534;DHT22;14973;51.460;7.008;2023-03-14T00:48:24;11.70;47.50
27534;DHT22;14973;51.460;7.008;2023-03-14T00:50:50;11.70;54.30
27534;DHT22;14973;51.460;7.008;2023-03-14T00:53:16;11.40;77.10
27534;DHT22;14973;51.460;7.008;2023-03-14T00:55:43;11.30;96.00
27534;DHT22;14973;51.460;7.008;2023-03-14T00:58:10;11.10;99.90
27534;DHT22;14973;51.460;7.008;2023-03-14T01:00:36;10.90;99.90
27534;DHT22;14973;51.460;7.008;2023-03-14T01:03:02;10.70;99.90
27534;DHT22;14973;51.460;7.008;2023-03-14T01:05:28;10.50;99.90
27534;DHT22;14973;51.460;7.008;2023-03-14T01:07:54;10.40;99.90
27534;DHT22;14973;51.460;7.008;2023-03-14T01:10:20;10.40;99.90
27534;DHT22;14973;51.460;7.008;2023-03-14T01:12:45;10.20;99.90
27534;DHT22;14973;51.460;7.008;2023-03-14T01:15:11;10.20;99.90
27534;DHT22;14973;51.460;7.008;2023-03-14T01:17:37;10.00;99.90
27534;DHT22;14973;51.460;7.008;2023-03-14T01:20:08;10.00;99.90
27534;DHT22;14973;51.460;7.008;2023-03-14T01:22:35;10.00;99.90
27534;DHT22;14973;51.460;7.008;2023-03-14T01:25:01;9.90;99.90
27534;DHT22;14973;51.460;7.008;2023-03-14T01:27:27;9.90;99.90
27534;DHT22;14973;51.460;7.008;2023-03-14T01:29:52;9.90;99.90
27534;DHT22;14973;51.460;7.008;2023-03-14T01:32:18;9.80;99.90
27534;DHT22;14973;51.460;7.008;2023-03-14T01:34:43;9.90;99.90
27534;DHT22;14973;51.460;7.008;2023-03-14T01:37:09;9.90;99.90
27534;DHT22;14973;51.460;7.008;2023-03-14T01:39:37;9.90;99.90
27534;DHT22;14973;51.460;7.008;2023-03-14T01:42:03;9.90;99.90
27534;DHT22;14973;51.460;7.008;2023-03-14T01:44:45;9.90;99.90
27534;DHT22;14973;51.460;7.008;2023-03-14T01:47:11;9.90;99.90
27534;DHT22;14973;51.460;7.008;2023-03-14T01:49:36;9.90;99.90
27534;DHT22;14973;51.460;7.008;2023-03-14T01:55:12;9.90;99.90
27534;DHT22;14973;51.460;7.008;2023-03-14T01:57:46;9.90;99.90
27534;DHT22;14973;51.460;7.008;2023-03-14T02:00:17;9.80;99.90
27534;DHT22;14973;51.460;7.008;2023-03-14T02:02:48;9.80;99.90
27534;DHT22;14973;51.460;7.008;2023-03-14T02:05:20;9.80;99.90
27534;DHT22;14973;51.460;7.008;2023-03-14T02:07:48;9.80;99.90
27534;DHT22;14973;51.460;7.008;2023-03-14T02:10:14;9.80;99.90
27534;DHT22;14973;51.460;7.008;2023-03-14T02:12:41;9.80;99.90
27534;DHT22;14973;51.460;7.008;2023-03-14T02:15:08;9.90;99.90
27534;DHT22;14973;51.460;7.008;2023-03-14T02:17:35;9.90;99.90
27534;DHT22;14973;51.460;7.008;2023-03-14T02:22:30;9.90;99.90
27534;DHT22;14973;51.460;7.008;2023-03-14T02:27:37;9.90;99.90
27534;DHT22;14973;51.460;7.008;2023-03-14T02:30:13;9.90;99.90
27534;DHT22;14973;51.460;7.008;2023-03-14T02:32:41;9.90;99.90
27534;DHT22;14973;51.460;7.008;2023-03-14T02:35:12;9.80;99.90
27534;DHT22;14973;51.460;7.008;2023-03-14T02:37:47;9.90;99.90
27534;DHT22;14973;51.460;7.008;2023-03-14T02:40:13;9.90;99.90
27534;DHT22;14973;51.460;7.008;2023-03-14T02:42:39;10.00;99.90
27534;DHT22;14973;51.460;7.008;2023-03-14T02:47:39;10.00;99.90
27534;DHT22;14973;51.460;7.008;2023-03-14T02:50:12;10.00;99.90
27534;DHT22;14973;51.460;7.008;2023-03-14T02:52:38;10.10;99.90
27534;DHT22;14973;51.460;7.008;2023-03-14T02:55:05;10.20;99.90
27534;DHT22;14973;51.460;7.008;2023-03-14T02:57:30;10.20;99.90
27534;DHT22;14973;51.460;7.008;2023-03-14T03:00:00;10.10;99.90
27534;DHT22;14973;51.460;7.008;2023-03-14T03:02:27;10.10;99.90
27534;DHT22;14973;51.460;7.008;2023-03-14T03:04:53;10.10;99.90
27534;DHT22;14973;51.460;7.008;2023-03-14T03:07:18;10.10;99.90
27534;DHT22;14973;51.460;7.008;2023-03-14T03:09:44;10.00;99.90
27534;DHT22;14973;51.460;7.008;2023-03-14T03:12:10;10.00;99.90
27534;DHT22;14973;51.460;7.008;2023-03-14T03:14:35;9.90;99.90
27534;DHT22;14973;51.460;7.008;2023-03-14T03:17:03;9.90;99.90
27534;DHT22;14973;51.460;7.008;2023-03-14T03:19:29;9.90;99.90
27534;DHT22;14973;51.460;7.008;2023-03-14T03:21:55;9.90;99.90
27534;DHT22;14973;51.460;7.008;2023-03-14T03:24:20;9.90;99.90
27534;DHT22;14973;51.460;7.008;2023-03-14T03:26:46;9.90;99.90
27534;DHT22;14973;51.460;7.008;2023-03-14T03:29:12;10.00;99.90
27534;DHT22;14973;51.460;7.008;2023-03-14T03:31:38;10.00;99.90
27534;DHT22;14973;51.460;7.008;2023-03-14T03:34:04;10.10;99.90
27534;DHT22;14973;51.460;7.008;2023-03-14T03:36:29;10.10;99.90
27534;DHT22;14973;51.460;7.008;2023-03-14T03:38:55;9.90;99.90
27534;DHT22;14973;51.460;7.008;2023-03-14T03:41:21;10.10;99.90
27534;DHT22;14973;51.460;7.008;2023-03-14T03:43:46;10.00;99.90
27534;DHT22;14973;51.460;7.008;2023-03-14T03:46:12;10.00;99.90
27534;DHT22;14973;51.460;7.008;2023-03-14T03:48:37;10.00;99.90
27534;DHT22;14973;51.460;7.008;2023-03-14T03:51:03;10.00;99.90
27534;DHT22;14973;51.460;7.008;2023-03-14T03:53:29;10.00;99.90
27534;DHT22;14973;51.460;7.008;2023-03-14T03:55:55;10.00;99.90
27534;DHT22;14973;51.460;7.008;2023-03-14T03:58:20;10.00;99.90
27534;DHT22;14973;51.460;7.008;2023-03-14T04:00:46;9.90;99.90
27534;DHT22;14973;51.460;7.008;2023-03-14T04:03:12;9.90;99.90
27534;DHT22;14973;51.460;7.008;2023-03-14T04:05:37;9.80;99.90
27534;DHT22;14973;51.460;7.008;2023-03-14T04:08:04;9.80;99.90
27534;DHT22;14973;51.460;7.008;2023-03-14T04:10:30;9.70;99.90
27534;DHT22;14973;51.460;7.008;2023-03-14T04:12:55;9.70;99.90
27534;DHT22;14973;51.460;7.008;2023-03-14T04:15:21;9.70;99.90
27534;DHT22;14973;51.460;7.008;2023-03-14T04:17:46;9.60;99.90
27534;DHT22;14973;51.460;7.008;2023-03-14T04:20:12;9.70;99.90
27534;DHT22;14973;51.460;7.008;2023-03-14T04:22:38;9.70;99.90
27534;DHT22;14973;51.460;7.008;2023-03-14T04:25:05;9.70;99.90
27534;DHT22;14973;51.460;7.008;2023-03-14T04:27:31;9.70;99.90
27534;DHT22;14973;51.460;7.008;2023-03-14T04:29:57;9.70;99.90
27534;DHT22;14973;51.460;7.008;2023-03-14T04:32:23;9.70;99.90
27534;DHT22;14973;51.460;7.008;2023-03-14T04:34:48;9.50;99.90
27534;DHT22;14973;51.460;7.008;2023-03-14T04:37:14;9.50;99.90
27534;DHT22;14973;51.460;7.008;2023-03-14T04:39:40;9.40;99.90
27534;DHT22;14973;51.460;7.008;2023-03-14T04:42:05;9.30;99.90
27534;DHT22;14973;51.460;7.008;2023-03-14T04:44:31;9.20;99.90
27534;DHT22;14973;51.460;7.008;2023-03-14T04:46:57;9.10;99.90
27534;DHT22;14973;51.460;7.008;2023-03-14T04:49:22;9.10;99.90
27534;DHT22;14973;51.460;7.008;2023-03-14T04:51:48;9.00;99.90
27534;DHT22;14973;51.460;7.008;2023-03-14T04:54:16;9.00;99.90
27534;DHT22;14973;51.460;7.008;2023-03-14T04:56:42;8.90;99.90
27534;DHT22;14973;51.460;7.008;2023-03-14T04:59:07;8.90;99.90
27534;DHT22;14973;51.460;7.008;2023-03-14T05:01:34;8.80;99.90
27534;DHT22;14973;51.460;7.008;2023-03-14T05:03:59;8.80;99.90
27534;DHT22;14973;51.460;7.008;2023-03-14T05:06:25;8.80;99.90
27534;DHT22;14973;51.460;7.008;2023-03-14T05:08:51;8.80;99.90
27534;DHT22;14973;51.460;7.008;2023-03-14T05:11:17;8.80;99.90
27534;DHT22;14973;51.460;7.008;2023-03-14T05:13:43;8.80;99.90
27534;DHT22;14973;51.460;7.008;2023-03-14T05:16:10;8.80;99.90
27534;DHT22;14973;51.460;7.008;2023-03-14T05:18:36;8.80;99.90
27534;DHT22;14973;51.460;7.008;2023-03-14T05:21:03;8.70;99.90
27534;DHT22;14973;51.460;7.008;2023-03-14T05:23:29;8.80;99.90
27534;DHT22;14973;51.460;7.008;2023-03-14T05:25:55;8.80;99.90
27534;DHT22;14973;51.460;7.008;2023-03-14T05:28:21;8.70;99.90
27534;DHT22;14973;51.460;7.008;2023-03-14T05:30:47;8.70;99.90
27534;DHT22;14973;51.460;7.008;2023-03-14T05:33:13;8.70;99.90
27534;DHT22;14973;51.460;7.008;2023-03-14T05:35:38;8.70;99.90
27534;DHT22;14973;51.460;7.008;2023-03-14T05:38:04;8.70;99.90
27534;DHT22;14973;51.460;7.008;2023-03-14T05:40:29;8.70;99.90
27534;DHT22;14973;51.460;7.008;2023-03-14T05:42:55;8.70;99.90
27534;DHT22;14973;51.460;7.008;2023-03-14T05:45:21;8.80;99.90
27534;DHT22;14973;51.460;7.008;2023-03-14T05:47:46;8.70;99.90
27534;DHT22;14973;51.460;7.008;2023-03-14T05:50:12;8.70;99.90
27534;DHT22;14973;51.460;7.008;2023-03-14T05:52:38;8.70;99.90
27534;DHT22;14973;51.460;7.008;2023-03-14T05:55:04;8.80;99.90
27534;DHT22;14973;51.460;7.008;2023-03-14T05:57:30;8.80;99.90
27534;DHT22;14973;51.460;7.008;2023-03-14T05:59:55;8.80;99.90
27534;DHT22;14973;51.460;7.008;2023-03-14T06:02:21;8.80;99.90
27534;DHT22;14973;51.460;7.008;2023-03-14T06:04:47;8.80;99.90
27534;DHT22;14973;51.460;7.008;2023-03-14T06:07:12;8.90;99.90
27534;DHT22;14973;51.460;7.008;2023-03-14T06:09:38;9.00;99.90
27534;DHT22;14973;51.460;7.008;2023-03-14T06:12:05;9.00;99.90
27534;DHT22;14973;51.460;7.008;2023-03-14T06:14:31;9.00;99.90
27534;DHT22;14973;51.460;7.008;2023-03-14T06:16:56;9.00;99.90
27534;DHT22;14973;51.460;7.008;2023-03-14T06:19:24;9.10;99.90
27534;DHT22;14973;51.460;7.008;2023-03-14T06:21:50;9.10;99.90
27534;DHT22;14973;51.460;7.008;2023-03-14T06:24:16;9.20;99.90
27534;DHT22;14973;51.460;7.008;2023-03-14T06:26:41;9.20;99.90
27534;DHT22;14973;51.460;7.008;2023-03-14T06:29:07;9.20;99.90
27534;DHT22;14973;51.460;7.008;2023-03-14T06:31:33;9.30;99.90
27534;DHT22;14973;51.460;7.008;2023-03-14T06:33:58;9.30;99.90
27534;DHT22;14973;51.460;7.008;2023-03-14T06:36:24;9.30;99.90
27534;DHT22;14973;51.460;7.008;2023-03-14T06:38:50;9.40;99.90
27534;DHT22;14973;51.460;7.008;2023-03-14T06:41:16;9.40;99.90
27534;DHT22;14973;51.460;7.008;2023-03-14T06:43:41;9.40;99.90
27534;DHT22;14973;51.460;7.008;2023-03-14T06:46:07;9.50;99.90
27534;DHT22;14973;51.460;7.008;2023-03-14T06:48:32;9.50;99.90
27534;DHT22;14973;51.460;7.008;2023-03-14T06:50:58;9.50;99.90
27534;DHT22;14973;51.460;7.008;2023-03-14T06:53:24;9.60;99.90
27534;DHT22;14973;51.460;7.008;2023-03-14T06:55:49;9.60;99.90
27534;DHT22;14973;51.460;7.008;2023-03-14T06:58:15;9.70;99.90
27534;DHT22;14973;51.460;7.008;2023-03-14T07:00:41;9.60;99.90
27534;DHT22;14973;51.460;7.008;2023-03-14T07:03:06;9.70;99.90
27534;DHT22;14973;51.460;7.008;2023-03-14T07:05:32;9.80;99.90
27534;DHT22;14973;51.460;7.008;2023-03-14T07:07:58;9.90;99.90
27534;DHT22;14973;51.460;7.008;2023-03-14T07:10:23;9.90;99.90
27534;DHT22;14973;51.460;7.008;2023-03-14T07:12:49;9.80;99.90
27534;DHT22;14973;51.460;7.008;2023-03-14T07:15:15;10.00;99.90
27534;DHT22;14973;51.460;7.008;2023-03-14T07:17:40;9.90;99.90
27534;DHT22;14973;51.460;7.008;2023-03-14T07:20:06;9.90;99.90
27534;DHT22;14973;51.460;7.008;2023-03-14T07:22:33;9.90;99.90
27534;DHT22;14973;51.460;7.008;2023-03-14T07:24:58;10.00;99.90
27534;DHT22;14973;51.460;7.008;2023-03-14T07:27:24;10.10;99.90
27534;DHT22;14973;51.460;7.008;2023-03-14T07:29:49;10.20;99.90
27534;DHT22;14973;51.460;7.008;2023-03-14T07:32:15;10.30;99.90
27534;DHT22;14973;51.460;7.008;2023-03-14T07:34:41;10.40;99.90
27534;DHT22;14973;51.460;7.008;2023-03-14T07:37:07;10.50;99.90
27534;DHT22;14973;51.460;7.008;2023-03-14T07:39:33;10.70;99.90
27534;DHT22;14973;51.460;7.008;2023-03-14T07:41:59;10.70;99.90
27534;DHT22;14973;51.460;7.008;2023-03-14T07:44:25;10.80;99.90
27534;DHT22;14973;51.460;7.008;2023-03-14T07:46:51;10.90;99.90
27534;DHT22;14973;51.460;7.008;2023-03-14T07:49:17;10.90;99.90
27534;DHT22;14973;51.460;7.008;2023-03-14T07:51:42;10.80;99.90
27534;DHT22;14973;51.460;7.008;2023-03-14T07:54:10;10.80;99.90
27534;DHT22;14973;51.460;7.008;2023-03-14T07:56:35;10.80;99.90
27534;DHT22;14973;51.460;7.008;2023-03-14T07:59:01;10.70;99.90
27534;DHT22;14973;51.460;7.008;2023-03-14T08:01:26;10.80;99.90
27534;DHT22;14973;51.460;7.008;2023-03-14T08:03:52;10.80;99.90
27534;DHT22;14973;51.460;7.008;2023-03-14T08:06:18;10.80;99.90
27534;DHT22;14973;51.460;7.008;2023-03-14T08:08:43;10.80;99.90
27534;DHT22;14973;51.460;7.008;2023-03-14T08:11:09;10.70;99.90
27534;DHT22;14973;51.460;7.008;2023-03-14T08:13:36;10.60;99.90
27534;DHT22;14973;51.460;7.008;2023-03-14T08:16:02;10.70;99.90
27534;DHT22;14973;51.460;7.008;2023-03-14T08:18:28;10.80;99.90
27534;DHT22;14973;51.460;7.008;2023-03-14T08:20:53;10.80;99.90
27534;DHT22;14973;51.460;7.008;2023-03-14T08:23:19;10.80;99.90
27534;DHT22;14973;51.460;7.008;2023-03-14T08:25:45;10.70;99.90
27534;DHT22;14973;51.460;7.008;2023-03-14T08:28:10;10.70;99.90
27534;DHT22;14973;51.460;7.008;2023-03-14T08:30:36;10.60;99.90
27534;DHT22;14973;51.460;7.008;2023-03-14T08:33:02;10.60;99.90
27534;DHT22;14973;51.460;7.008;2023-03-14T08:35:28;10.80;99.90
27534;DHT22;14973;51.460;7.008;2023-03-14T08:37:53;11.00;99.90
27534;DHT22;14973;51.460;7.008;2023-03-14T08:40:19;11.50;99.90
27534;DHT22;14973;51.460;7.008;2023-03-14T08:42:45;11.90;99.90
27534;DHT22;14973;51.460;7.008;2023-03-14T08:45:14;12.20;99.90
27534;DHT22;14973;51.460;7.008;2023-03-14T08:47:40;12.60;99.90
27534;DHT22;14973;51.460;7.008;2023-03-14T08:50:06;12.80;99.90
27534;DHT22;14973;51.460;7.008;2023-03-14T08:52:32;12.60;99.90
27534;DHT22;14973;51.460;7.008;2023-03-14T08:54:58;12.30;99.90
27534;DHT22;14973;51.460;7.008;2023-03-14T08:57:24;12.20;99.90
27534;DHT22;14973;51.460;7.008;2023-03-14T08:59:56;11.90;99.90
27534;DHT22;14973;51.460;7.008;2023-03-14T09:02:23;11.80;99.90
27534;DHT22;14973;51.460;7.008;2023-03-14T09:04:50;11.60;99.90
27534;DHT22;14973;51.460;7.008;2023-03-14T09:07:17;11.60;99.90
27534;DHT22;14973;51.460;7.008;2023-03-14T09:09:42;11.50;99.90
27534;DHT22;14973;51.460;7.008;2023-03-14T09:12:08;11.40;99.90
27534;DHT22;14973;51.460;7.008;2023-03-14T09:14:35;11.20;99.90
27534;DHT22;14973;51.460;7.008;2023-03-14T09:17:02;11.00;99.90
27534;DHT22;14973;51.460;7.008;2023-03-14T09:19:28;10.90;99.90
27534;DHT22;14973;51.460;7.008;2023-03-14T09:21:54;10.90;99.90
27534;DHT22;14973;51.460;7.008;2023-03-14T09:24:20;10.80;99.90
27534;DHT22;14973;51.460;7.008;2023-03-14T09:26:46;10.70;99.90
27534;DHT22;14973;51.460;7.008;2023-03-14T09:29:12;10.40;99.90
27534;DHT22;14973;51.460;7.008;2023-03-14T09:31:38;10.00;99.90
27534;DHT22;14973;51.460;7.008;2023-03-14T09:34:04;9.80;99.90
27534;DHT22;14973;51.460;7.008;2023-03-14T09:36:30;9.70;99.90
27534;DHT22;14973;51.460;7.008;2023-03-14T09:38:56;9.50;99.90
27534;DHT22;14973;51.460;7.008;2023-03-14T09:41:28;9.40;99.90
27534;DHT22;14973;51.460;7.008;2023-03-14T09:44:25;9.30;99.90
27534;DHT22;14973;51.460;7.008;2023-03-14T09:46:53;9.30;99.90
27534;DHT22;14973;51.460;7.008;2023-03-14T09:49:23;9.20;99.90
27534;DHT22;14973;51.460;7.008;2023-03-14T09:51:53;9.20;99.90
27534;DHT22;14973;51.460;7.008;2023-03-14T09:54:39;9.10;99.90
27534;DHT22;14973;51.460;7.008;2023-03-14T09:57:14;9.20;99.90
27534;DHT22;14973;51.460;7.008;2023-03-14T09:59:46;9.10;99.90
27534;DHT22;14973;51.460;7.008;2023-03-14T10:02:23;9.00;99.90
27534;DHT22;14973;51.460;7.008;2023-03-14T10:04:52;8.80;99.90
27534;DHT22;14973;51.460;7.008;2023-03-14T10:07:21;8.80;99.90
27534;DHT22;14973;51.460;7.008;2023-03-14T10:09:51;8.70;99.90
27534;DHT22;14973;51.460;7.008;2023-03-14T10:12:18;8.70;99.90
27534;DHT22;14973;51.460;7.008;2023-03-14T10:14:51;8.60;99.90
27534;DHT22;14973;51.460;7.008;2023-03-14T10:17:20;8.60;99.90
27534;DHT22;14973;51.460;7.008;2023-03-14T10:19:57;8.50;99.90
27534;DHT22;14973;51.460;7.008;2023-03-14T10:22:27;8.60;99.90
27534;DHT22;14973;51.460;7.008;2023-03-14T10:24:57;8.70;99.90
27534;DHT22;14973;51.460;7.008;2023-03-14T10:27:30;8.80;99.90
27534;DHT22;14973;51.460;7.008;2023-03-14T10:30:02;8.80;99.90
27534;DHT22;14973;51.460;7.008;2023-03-14T10:32:33;8.80;99.90
27534;DHT22;14973;51.460;7.008;2023-03-14T10:35:20;8.80;99.90
27534;DHT22;14973;51.460;7.008;2023-03-14T10:37:56;8.70;99.90
27534;DHT22;14973;51.460;7.008;2023-03-14T10:40:31;8.60;99.90
27534;DHT22;14973;51.460;7.008;2023-03-14T10:43:01;8.40;99.90
27534;DHT22;14973;51.460;7.008;2023-03-14T10:45:39;8.20;99.90
27534;DHT22;14973;51.460;7.008;2023-03-14T10:48:33;8.20;99.90
27534;DHT22;14973;51.460;7.008;2023-03-14T10:54:02;8.40;99.90
27534;DHT22;14973;51.460;7.008;2023-03-14T10:56:35;8.30;99.90
27534;DHT22;14973;51.460;7.008;2023-03-14T10:59:03;8.30;99.90
27534;DHT22;14973;51.460;7.008;2023-03-14T11:04:31;8.20;99.90
27534;DHT22;14973;51.460;7.008;2023-03-14T11:07:16;8.10;99.90
27534;DHT22;14973;51.460;7.008;2023-03-14T11:21:18;8.30;99.90
27534;DHT22;14973;51.460;7.008;2023-03-14T11:26:32;8.60;99.90
27534;DHT22;14973;51.460;7.008;2023-03-14T11:29:08;8.70;99.90
27534;DHT22;14973;51.460;7.008;2023-03-14T11:31:39;8.50;99.90
27534;DHT22;14973;51.460;7.008;2023-03-14T11:42:42;8.40;96.40
27534;DHT22;14973;51.460;7.008;2023-03-14T11:45:18;8.40;95.40
27534;DHT22;14973;51.460;7.008;2023-03-14T11:47:45;8.40;95.00
27534;DHT22;14973;51.460;7.008;2023-03-14T11:50:18;8.40;97.50
27534;DHT22;14973;51.460;7.008;2023-03-14T11:52:54;8.40;92.30
27534;DHT22;14973;51.460;7.008;2023-03-14T11:57:59;8.20;96.70
27534;DHT22;14973;51.460;7.008;2023-03-14T12:00:27;8.20;97.30
27534;DHT22;14973;51.460;7.008;2023-03-14T12:10:53;8.70;83.90
27534;DHT22;14973;51.460;7.008;2023-03-14T12:13:20;8.60;86.90
27534;DHT22;14973;51.460;7.008;2023-03-14T12:15:58;8.70;79.90
27534;DHT22;14973;51.460;7.008;2023-03-14T12:18:30;9.00;84.30
27534;DHT22;14973;51.460;7.008;2023-03-14T12:21:01;9.30;59.00
27534;DHT22;14973;51.460;7.008;2023-03-14T12:23:36;9.50;43.60
27534;DHT22;14973;51.460;7.008;2023-03-14T12:28:33;9.90;1.00
27534;DHT22;14973;51.460;7.008;2023-03-14T12:37:02;10.60;32.00
27534;DHT22;14973;51.460;7.008;2023-03-14T12:39:58;10.90;99.90
27534;DHT22;14973;51.460;7.008;2023-03-14T12:42:38;10.90;99.70
27534;DHT22;14973;51.460;7.008;2023-03-14T12:45:22;10.80;98.90
27534;DHT22;14973;51.460;7.008;2023-03-14T12:48:06;10.40;99.90
27534;DHT22;14973;51.460;7.008;2023-03-14T12:50:46;9.90;99.90
27534;DHT22;14973;51.460;7.008;2023-03-14T12:53:46;9.60;99.90
27534;DHT22;14973;51.460;7.008;2023-03-14T12:56:27;9.20;1.00
27534;DHT22;14973;51.460;7.008;2023-03-14T13:02:19;8.50;1.00
27534;DHT22;14973;51.460;7.008;2023-03-14T13:04:49;8.30;1.00
27534;DHT22;14973;51.460;7.008;2023-03-14T13:07:36;8.20;1.00
27534;DHT22;14973;51.460;7.008;2023-03-14T13:10:28;8.50;6.40
27534;DHT22;14973;51.460;7.008;2023-03-14T13:13:02;8.80;1.00
27534;DHT22;14973;51.460;7.008;2023-03-14T13:15:43;9.00;1.00
27534;DHT22;14973;51.460;7.008;2023-03-14T13:18:26;9.30;1.00
27534;DHT22;14973;51.460;7.008;2023-03-14T13:20:58;9.20;1.00
27534;DHT22;14973;51.460;7.008;2023-03-14T13:23:32;9.30;99.90
27534;DHT22;14973;51.460;7.008;2023-03-14T13:26:00;9.10;99.90
27534;DHT22;14973;51.460;7.008;2023-03-14T13:28:27;8.80;1.00
27534;DHT22;14973;51.460;7.008;2023-03-14T13:31:01;8.40;1.00
27534;DHT22;14973;51.460;7.008;2023-03-14T13:33:27;8.40;1.00
27534;DHT22;14973;51.460;7.008;2023-03-14T13:36:02;8.30;1.00
27534;DHT22;14973;51.460;7.008;2023-03-14T13:38:31;8.50;1.00
27534;DHT22;14973;51.460;7.008;2023-03-14T13:40:59;8.40;99.90
27534;DHT22;14973;51.460;7.008;2023-03-14T13:46:21;8.60;99.90
27534;DHT22;14973;51.460;7.008;2023-03-14T13:48:53;8.80;99.90
27534;DHT22;14973;51.460;7.008;2023-03-14T13:51:21;8.80;99.90
27534;DHT22;14973;51.460;7.008;2023-03-14T13:53:49;8.70;99.90
27534;DHT22;14973;51.460;7.008;2023-03-14T13:56:16;9.00;1.00
27534;DHT22;14973;51.460;7.008;2023-03-14T13:58:42;9.20;1.00
27534;DHT22;14973;51.460;7.008;2023-03-14T14:01:18;9.40;64.50
27534;DHT22;14973;51.460;7.008;2023-03-14T14:03:55;9.60;1.00
27534;DHT22;14973;51.460;7.008;2023-03-14T14:08:50;9.30;1.00
27534;DHT22;14973;51.460;7.008;2023-03-14T14:11:33;9.30;99.90
27534;DHT22;14973;51.460;7.008;2023-03-14T14:14:02;9.20;1.00
27534;DHT22;14973;51.460;7.008;2023-03-14T14:16:29;9.40;99.90
27534;DHT22;14973;51.460;7.008;2023-03-14T14:18:56;9.30;11.90
27534;DHT22;14973;51.460;7.008;2023-03-14T14:21:23;9.50;1.00
27534;DHT22;14973;51.460;7.008;2023-03-14T14:23:50;9.70;76.00
27534;DHT22;14973;51.460;7.008;2023-03-14T14:26:17;10.00;99.90
27534;DHT22;14973;51.460;7.008;2023-03-14T14:28:44;9.90;1.00
27534;DHT22;14973;51.460;7.008;2023-03-14T14:33:58;9.80;99.90
27534;DHT22;14973;51.460;7.008;2023-03-14T14:36:39;9.70;99.90
27534;DHT22;14973;51.460;7.008;2023-03-14T14:39:19;9.50;99.90
27534;DHT22;14973;51.460;7.008;2023-03-14T14:41:48;9.30;99.90
27534;DHT22;14973;51.460;7.008;2023-03-14T14:44:18;9.20;99.90
27534;DHT22;14973;51.460;7.008;2023-03-14T14:46:46;9.20;99.90
27534;DHT22;14973;51.460;7.008;2023-03-14T14:49:18;9.20;99.90
27534;DHT22;14973;51.460;7.008;2023-03-14T14:51:48;9.10;99.90
27534;DHT22;14973;51.460;7.008;2023-03-14T14:54:20;9.10;99.90
27534;DHT22;14973;51.460;7.008;2023-03-14T14:57:04;9.10;99.90
27534;DHT22;14973;51.460;7.008;2023-03-14T14:59:30;9.00;99.90
27534;DHT22;14973;51.460;7.008;2023-03-14T15:02:00;8.80;99.90
27534;DHT22;14973;51.460;7.008;2023-03-14T15:04:27;8.70;99.90
27534;DHT22;14973;51.460;7.008;2023-03-14T15:06:55;8.60;99.90
27534;DHT22;14973;51.460;7.008;2023-03-14T15:09:21;8.60;99.90
27534;DHT22;14973;51.460;7.008;2023-03-14T15:11:48;8.40;99.90
27534;DHT22;14973;51.460;7.008;2023-03-14T15:14:14;8.30;99.90
27534;DHT22;14973;51.460;7.008;2023-03-14T15:16:40;8.20;99.90
27534;DHT22;14973;51.460;7.008;2023-03-14T15:19:21;8.20;99.90
27534;DHT22;14973;51.460;7.008;2023-03-14T15:21:49;8.20;99.90
27534;DHT22;14973;51.460;7.008;2023-03-14T15:24:15;8.30;99.90
27534;DHT22;14973;51.460;7.008;2023-03-14T15:26:40;8.30;99.90
27534;DHT22;14973;51.460;7.008;2023-03-14T15:29:08;8.30;99.90
27534;DHT22;14973;51.460;7.008;2023-03-14T15:31:35;8.30;99.90
27534;DHT22;14973;51.460;7.008;2023-03-14T15:34:01;8.40;99.90
27534;DHT22;14973;51.460;7.008;2023-03-14T15:36:30;8.30;99.90
27534;DHT22;14973;51.460;7.008;2023-03-14T15:38:59;8.20;99.90
27534;DHT22;14973;51.460;7.008;2023-03-14T15:41:27;8.00;99.90
27534;DHT22;14973;51.460;7.008;2023-03-14T15:43:53;8.00;99.90
27534;DHT22;14973;51.460;7.008;2023-03-14T15:46:19;7.90;99.90
27534;DHT22;14973;51.460;7.008;2023-03-14T15:48:48;7.90;99.90
27534;DHT22;14973;51.460;7.008;2023-03-14T15:51:14;7.80;99.90
27534;DHT22;14973;51.460;7.008;2023-03-14T15:53:40;7.70;99.90
27534;DHT22;14973;51.460;7.008;2023-03-14T15:56:09;7.70;99.90
27534;DHT22;14973;51.460;7.008;2023-03-14T15:58:36;7.70;99.90
27534;DHT22;14973;51.460;7.008;2023-03-14T16:01:06;7.80;99.90
27534;DHT22;14973;51.460;7.008;2023-03-14T16:03:35;7.80;99.90
27534;DHT22;14973;51.460;7.008;2023-03-14T16:06:01;7.80;99.90
27534;DHT22;14973;51.460;7.008;2023-03-14T16:08:27;7.70;99.90
27534;DHT22;14973;51.460;7.008;2023-03-14T16:10:54;7.70;99.90
27534;DHT22;14973;51.460;7.008;2023-03-14T16:13:20;7.70;99.90
27534;DHT22;14973;51.460;7.008;2023-03-14T16:15:59;7.70;99.90
27534;DHT22;14973;51.460;7.008;2023-03-14T16:18:28;7.70;99.90
27534;DHT22;14973;51.460;7.008;2023-03-14T16:21:02;7.60;99.90
27534;DHT22;14973;51.460;7.008;2023-03-14T16:23:30;7.50;99.90
27534;DHT22;14973;51.460;7.008;2023-03-14T16:25:56;7.60;99.90
27534;DHT22;14973;51.460;7.008;2023-03-14T16:28:22;7.40;99.90
27534;DHT22;14973;51.460;7.008;2023-03-14T16:30:48;7.30;99.90
27534;DHT22;14973;51.460;7.008;2023-03-14T16:33:15;7.30;99.90
27534;DHT22;14973;51.460;7.008;2023-03-14T16:35:41;7.30;99.90
27534;DHT22;14973;51.460;7.008;2023-03-14T16:38:17;7.30;99.90
27534;DHT22;14973;51.460;7.008;2023-03-14T16:40:43;7.30;99.90
27534;DHT22;14973;51.460;7.008;2023-03-14T16:43:08;7.30;99.90
27534;DHT22;14973;51.460;7.008;2023-03-14T16:45:36;7.30;99.90
27534;DHT22;14973;51.460;7.008;2023-03-14T16:48:02;7.30;99.90
27534;DHT22;14973;51.460;7.008;2023-03-14T16:50:27;7.30;99.90
27534;DHT22;14973;51.460;7.008;2023-03-14T16:52:53;7.30;99.90
27534;DHT22;14973;51.460;7.008;2023-03-14T16:55:20;7.30;99.90
27534;DHT22;14973;51.460;7.008;2023-03-14T16:57:45;7.20;99.90
27534;DHT22;14973;51.460;7.008;2023-03-14T17:00:11;7.00;99.90